Time;durP1;ratioP1;P1;durP2;ratioP2;P2;SDS_P1;SDS_P2;PMS_P1;PMS_P2;Temp;Humidity;BMP_temperature;BMP_pressure;BME280_temperature;BME280_humidity;BME280_pressure;Samples;Min_cycle;Max_cycle;Signal;HPM_P1;HPM_P2
2022/10/22 00:01:28;;;;;;;;;;;15.90;99.90;;;;;;5052384;28;20315;-84
2022/10/22 00:03:53;;;;;;;;;;;15.90;99.90;;;;;;5034441;28;19909;-84
2022/10/22 00:06:19;;;;;;;;;;;15.80;99.90;;;;;;5033706;28;19909;-84
2022/10/22 00:08:44;;;;;;;;;;;15.80;99.90;;;;;;5052188;28;19959;-84
2022/10/22 00:11:11;;;;;;;;;;;15.90;99.90;;;;;;5052251;28;19909;-84
2022/10/22 00:13:36;;;;;;;;;;;15.90;99.90;;;;;;5052189;28;19908;-83
2022/10/22 00:16:02;;;;;;;;;;;15.90;99.90;;;;;;5034174;28;20378;-84
2022/10/22 00:18:27;;;;;;;;;;;15.90;99.90;;;;;;5034366;28;19982;-83
2022/10/22 00:20:53;;;;;;;;;;;16.00;99.90;;;;;;5052276;28;19913;-84
2022/10/22 00:23:18;;;;;;;;;;;16.10;99.90;;;;;;5052067;28;19908;-84
2022/10/22 00:25:44;;;;;;;;;;;16.10;99.90;;;;;;5034073;28;19909;-84
2022/10/22 00:28:10;;;;;;;;;;;16.10;99.90;;;;;;5052155;28;20007;-84
2022/10/22 00:30:36;;;;;;;;;;;16.10;99.90;;;;;;5052121;28;19909;-83
2022/10/22 00:33:01;;;;;;;;;;;16.20;99.90;;;;;;5051919;28;20367;-84
2022/10/22 00:35:27;;;;;;;;;;;16.20;99.90;;;;;;5051815;28;19916;-84
2022/10/22 00:37:52;;;;;;;;;;;16.20;99.90;;;;;;5052083;28;20283;-84
2022/10/22 00:40:18;;;;;;;;;;;16.20;99.90;;;;;;5051989;28;19927;-84
2022/10/22 00:42:43;;;;;;;;;;;16.30;99.90;;;;;;5051917;28;19916;-84
2022/10/22 00:45:08;;;;;;;;;;;16.20;99.90;;;;;;5034082;28;20006;-84
2022/10/22 00:47:36;;;;;;;;;;;16.20;99.90;;;;;;5051717;28;19913;-84
2022/10/22 00:50:03;;;;;;;;;;;16.20;99.90;;;;;;5052019;28;19916;-84
2022/10/22 00:52:29;;;;;;;;;;;16.20;99.90;;;;;;5051649;28;20433;-84
2022/10/22 00:54:55;;;;;;;;;;;16.20;99.90;;;;;;5033965;28;19909;-83
2022/10/22 00:57:21;;;;;;;;;;;16.20;99.90;;;;;;5033807;28;19963;-84
2022/10/22 00:59:47;;;;;;;;;;;16.20;99.90;;;;;;5055387;28;20299;-84
2022/10/22 01:02:13;;;;;;;;;;;16.20;99.90;;;;;;5055595;28;19999;-84
2022/10/22 01:04:39;;;;;;;;;;;16.20;99.90;;;;;;5055355;28;19909;-84
2022/10/22 01:07:04;;;;;;;;;;;16.20;99.90;;;;;;5037020;28;20417;-84
2022/10/22 01:09:49;;;;;;;;;;;16.20;99.90;;;;;;5055277;28;19947;-84
2022/10/22 01:12:20;;;;;;;;;;;16.20;99.90;;;;;;5055376;28;19990;-84
2022/10/22 01:14:49;;;;;;;;;;;16.30;99.90;;;;;;5055317;28;19909;-83
2022/10/22 01:17:22;;;;;;;;;;;16.20;99.90;;;;;;5037208;28;19909;-84
2022/10/22 01:20:02;;;;;;;;;;;16.30;99.90;;;;;;5055239;28;19909;-84
2022/10/22 01:22:38;;;;;;;;;;;16.30;99.90;;;;;;5037415;28;19921;-84
2022/10/22 01:25:18;;;;;;;;;;;16.30;99.90;;;;;;5037238;28;19909;-84
2022/10/22 01:28:16;;;;;;;;;;;16.30;99.90;;;;;;5055234;28;19913;-84
2022/10/22 01:30:42;;;;;;;;;;;16.30;99.90;;;;;;5021203;28;19909;-84
2022/10/22 01:33:09;;;;;;;;;;;16.40;99.90;;;;;;5054858;28;19917;-84
2022/10/22 01:35:38;;;;;;;;;;;16.40;99.90;;;;;;5098259;22;20030;-81
2022/10/22 01:38:07;;;;;;;;;;;16.40;99.90;;;;;;5077236;28;20332;-83
2022/10/22 01:40:34;;;;;;;;;;;16.40;99.90;;;;;;5077244;28;19946;-81
2022/10/22 01:43:04;;;;;;;;;;;16.50;99.90;;;;;;5077064;28;19915;-81
2022/10/22 01:45:37;;;;;;;;;;;16.40;99.90;;;;;;5076674;28;20171;-82
2022/10/22 01:48:15;;;;;;;;;;;16.50;99.90;;;;;;5078076;28;19924;-81
2022/10/22 01:50:44;;;;;;;;;;;16.40;99.90;;;;;;5079811;28;19908;-82
2022/10/22 01:53:39;;;;;;;;;;;16.40;99.90;;;;;;5080151;28;19908;-82
2022/10/22 01:56:07;;;;;;;;;;;16.50;99.90;;;;;;5058300;28;19908;-83
2022/10/22 01:58:33;;;;;;;;;;;16.40;99.90;;;;;;5080026;28;19951;-83
2022/10/22 02:01:02;;;;;;;;;;;16.40;99.90;;;;;;5079921;28;19908;-84
2022/10/22 02:03:33;;;;;;;;;;;16.40;99.90;;;;;;5076663;28;19908;-81
2022/10/22 02:06:02;;;;;;;;;;;16.40;99.90;;;;;;5076498;28;20424;-81
2022/10/22 02:08:29;;;;;;;;;;;16.40;99.90;;;;;;5076171;28;19935;-81
2022/10/22 02:10:56;;;;;;;;;;;16.30;99.90;;;;;;5075649;28;19916;-82
2022/10/22 02:13:24;;;;;;;;;;;16.30;99.90;;;;;;5076408;28;19947;-81
2022/10/22 02:15:50;;;;;;;;;;;16.40;99.90;;;;;;5076456;28;19908;-82
2022/10/22 02:18:18;;;;;;;;;;;16.30;99.90;;;;;;5076267;28;20283;-82
2022/10/22 02:20:43;;;;;;;;;;;16.30;99.90;;;;;;5076225;28;19912;-82
2022/10/22 02:23:09;;;;;;;;;;;16.20;99.90;;;;;;5076224;28;19999;-81
2022/10/22 02:25:36;;;;;;;;;;;16.20;99.90;;;;;;5076334;28;19934;-82
2022/10/22 02:28:20;;;;;;;;;;;16.20;99.90;;;;;;5077863;28;19912;-83
2022/10/22 02:30:47;;;;;;;;;;;16.10;99.90;;;;;;5077613;28;20345;-83
2022/10/22 02:33:13;;;;;;;;;;;16.00;99.90;;;;;;5077195;28;19943;-81
2022/10/22 02:35:40;;;;;;;;;;;15.90;99.90;;;;;;5076927;28;19916;-81
2022/10/22 02:38:06;;;;;;;;;;;15.90;99.90;;;;;;5076983;28;20240;-81
2022/10/22 02:40:31;;;;;;;;;;;15.80;99.90;;;;;;5076527;28;19939;-82
2022/10/22 02:42:57;;;;;;;;;;;15.70;99.90;;;;;;5075980;28;19909;-82
2022/10/22 02:45:22;;;;;;;;;;;15.60;99.90;;;;;;5075932;28;20279;-83
2022/10/22 02:47:48;;;;;;;;;;;15.50;99.90;;;;;;5075604;28;19966;-81
2022/10/22 02:50:14;;;;;;;;;;;15.50;99.90;;;;;;5075435;28;19909;-82
2022/10/22 02:52:39;;;;;;;;;;;15.50;99.90;;;;;;5075474;28;19908;-81
2022/10/22 02:55:05;;;;;;;;;;;15.40;99.90;;;;;;5075642;28;20041;-81
2022/10/22 02:57:31;;;;;;;;;;;15.40;99.90;;;;;;5075555;28;19948;-82
2022/10/22 02:59:56;;;;;;;;;;;15.40;99.90;;;;;;5075596;28;19944;-81
2022/10/22 03:02:22;;;;;;;;;;;15.30;99.90;;;;;;5075408;28;20444;-81
2022/10/22 03:04:47;;;;;;;;;;;15.30;99.90;;;;;;5075367;28;19973;-81
2022/10/22 03:07:13;;;;;;;;;;;15.30;99.90;;;;;;5075293;28;19919;-81
2022/10/22 03:09:39;;;;;;;;;;;15.30;99.90;;;;;;5075459;28;19908;-81
2022/10/22 03:12:04;;;;;;;;;;;15.30;99.90;;;;;;5075146;28;19912;-82
2022/10/22 03:14:30;;;;;;;;;;;15.30;99.90;;;;;;5074989;28;19951;-81
2022/10/22 03:16:55;;;;;;;;;;;15.30;99.90;;;;;;5075268;28;20007;-81
2022/10/22 03:19:21;;;;;;;;;;;15.30;99.90;;;;;;5075525;28;19944;-81
2022/10/22 03:21:51;;;;;;;;;;;15.30;99.90;;;;;;5074385;28;20025;-81
2022/10/22 03:24:19;;;;;;;;;;;15.30;99.90;;;;;;5075257;28;19916;-83
2022/10/22 03:26:46;;;;;;;;;;;15.40;99.90;;;;;;5074842;28;19912;-81
2022/10/22 03:29:13;;;;;;;;;;;15.40;99.90;;;;;;5075213;28;19908;-81
2022/10/22 03:31:38;;;;;;;;;;;15.40;99.90;;;;;;5075007;28;19908;-81
2022/10/22 03:34:04;;;;;;;;;;;15.50;99.90;;;;;;5074896;28;19908;-81
2022/10/22 03:36:30;;;;;;;;;;;15.60;99.90;;;;;;5074694;28;19974;-81
2022/10/22 03:38:55;;;;;;;;;;;15.60;99.90;;;;;;5074909;28;19934;-81
2022/10/22 03:41:21;;;;;;;;;;;15.60;99.90;;;;;;5074888;28;19908;-83
2022/10/22 03:43:50;;;;;;;;;;;15.70;99.90;;;;;;5074919;28;19909;-81
2022/10/22 03:46:15;;;;;;;;;;;15.60;99.90;;;;;;5074649;28;20406;-81
2022/10/22 03:48:41;;;;;;;;;;;15.60;99.90;;;;;;5074728;28;19912;-81
2022/10/22 03:51:07;;;;;;;;;;;15.60;99.90;;;;;;5075348;28;19935;-81
2022/10/22 03:53:32;;;;;;;;;;;15.60;99.90;;;;;;5074577;28;19908;-81
2022/10/22 03:55:58;;;;;;;;;;;15.60;99.90;;;;;;5074508;28;19954;-82
2022/10/22 03:58:23;;;;;;;;;;;15.60;99.90;;;;;;5093254;28;19914;-81
2022/10/22 04:00:49;;;;;;;;;;;15.50;99.90;;;;;;5074160;28;19908;-82
2022/10/22 04:03:14;;;;;;;;;;;15.50;99.90;;;;;;5074751;28;19923;-81
2022/10/22 04:05:41;;;;;;;;;;;15.50;99.90;;;;;;5057432;28;20544;-81
2022/10/22 04:08:06;;;;;;;;;;;15.50;99.90;;;;;;5074856;28;19912;-81
2022/10/22 04:10:32;;;;;;;;;;;15.40;99.90;;;;;;5074815;28;19908;-82
2022/10/22 04:12:58;;;;;;;;;;;15.40;99.90;;;;;;5074659;28;19908;-81
2022/10/22 04:15:26;;;;;;;;;;;15.30;99.90;;;;;;5074139;28;19916;-81
2022/10/22 04:17:52;;;;;;;;;;;15.30;99.90;;;;;;5074964;28;19919;-83
2022/10/22 04:20:18;;;;;;;;;;;15.30;99.90;;;;;;5074905;28;19912;-81
2022/10/22 04:22:43;;;;;;;;;;;15.20;99.90;;;;;;5074697;28;19958;-81
2022/10/22 04:25:09;;;;;;;;;;;15.20;99.90;;;;;;5074904;28;20275;-81
2022/10/22 04:27:35;;;;;;;;;;;15.10;99.90;;;;;;5074617;28;19973;-81
2022/10/22 04:30:00;;;;;;;;;;;15.00;99.90;;;;;;5075079;28;19944;-81
2022/10/22 04:32:26;;;;;;;;;;;15.00;99.90;;;;;;5076164;28;19942;-81
2022/10/22 04:34:52;;;;;;;;;;;14.90;99.90;;;;;;5078804;28;19916;-81
2022/10/22 04:37:17;;;;;;;;;;;14.80;99.90;;;;;;5078586;28;19973;-81
2022/10/22 04:39:43;;;;;;;;;;;14.80;99.90;;;;;;5078854;28;19912;-81
2022/10/22 04:42:09;;;;;;;;;;;14.70;99.90;;;;;;5078584;28;19908;-84
2022/10/22 04:44:35;;;;;;;;;;;14.70;99.90;;;;;;5078654;28;19908;-81
2022/10/22 04:47:01;;;;;;;;;;;14.60;99.90;;;;;;5078004;28;19956;-81
2022/10/22 04:49:26;;;;;;;;;;;14.50;99.90;;;;;;5078389;28;19982;-81
2022/10/22 04:51:52;;;;;;;;;;;14.50;99.90;;;;;;5079961;28;19908;-83
2022/10/22 04:54:17;;;;;;;;;;;14.40;99.90;;;;;;5079791;28;20378;-83
2022/10/22 04:56:43;;;;;;;;;;;14.40;99.90;;;;;;5080583;28;20005;-84
2022/10/22 04:59:12;;;;;;;;;;;14.30;99.90;;;;;;5079799;28;19915;-82
2022/10/22 05:01:39;;;;;;;;;;;14.30;99.90;;;;;;5097420;28;20336;-81
2022/10/22 05:04:06;;;;;;;;;;;14.20;99.90;;;;;;5097455;28;20375;-82
2022/10/22 05:06:32;;;;;;;;;;;14.10;99.90;;;;;;5096888;28;19912;-82
2022/10/22 05:08:59;;;;;;;;;;;14.10;99.90;;;;;;5098637;28;19908;-81
2022/10/22 05:11:27;;;;;;;;;;;14.10;99.90;;;;;;5096697;28;19908;-81
2022/10/22 05:13:54;;;;;;;;;;;14.10;99.90;;;;;;5096651;28;19912;-81
2022/10/22 05:16:19;;;;;;;;;;;14.10;99.90;;;;;;5095586;28;19923;-82
2022/10/22 05:18:45;;;;;;;;;;;14.10;99.90;;;;;;5078857;28;19908;-81
2022/10/22 05:21:11;;;;;;;;;;;14.10;99.90;;;;;;5078835;28;19915;-81
2022/10/22 05:23:37;;;;;;;;;;;14.10;99.90;;;;;;5096047;28;19999;-81
2022/10/22 05:26:03;;;;;;;;;;;14.10;99.90;;;;;;5097094;28;19940;-81
2022/10/22 05:28:29;;;;;;;;;;;14.10;99.90;;;;;;5095902;28;20271;-83
2022/10/22 05:30:55;;;;;;;;;;;14.10;99.90;;;;;;5095720;28;19920;-83
2022/10/22 05:33:21;;;;;;;;;;;14.10;99.90;;;;;;5095593;28;19912;-81
2022/10/22 05:35:50;;;;;;;;;;;14.00;99.90;;;;;;5078483;28;19923;-82
2022/10/22 05:38:16;;;;;;;;;;;14.10;99.90;;;;;;5095446;28;19912;-81
2022/10/22 05:40:41;;;;;;;;;;;14.10;99.90;;;;;;5095145;28;20286;-81
2022/10/22 05:43:22;;;;;;;;;;;14.10;99.90;;;;;;5092198;28;19904;-80
2022/10/22 05:45:48;;;;;;;;;;;14.10;99.90;;;;;;5099293;28;19947;-82
2022/10/22 05:48:14;;;;;;;;;;;14.20;99.90;;;;;;5097802;28;19912;-81
2022/10/22 05:50:40;;;;;;;;;;;14.20;99.90;;;;;;5097456;28;19908;-80
2022/10/22 05:53:05;;;;;;;;;;;14.20;99.90;;;;;;5096753;28;19912;-80
2022/10/22 05:55:39;;;;;;;;;;;14.30;99.90;;;;;;5113550;28;19908;-80
2022/10/22 05:58:05;;;;;;;;;;;14.30;99.90;;;;;;5115166;28;19896;-81
2022/10/22 06:00:31;;;;;;;;;;;14.40;99.90;;;;;;5114207;28;19919;-81
2022/10/22 06:02:56;;;;;;;;;;;14.40;99.90;;;;;;5097372;28;19973;-82
2022/10/22 06:05:22;;;;;;;;;;;14.40;99.90;;;;;;5097789;28;19908;-80
2022/10/22 06:07:47;;;;;;;;;;;14.40;99.90;;;;;;5097959;28;19967;-81
2022/10/22 06:10:14;;;;;;;;;;;14.40;99.90;;;;;;5098775;28;20391;-80
2022/10/22 06:12:39;;;;;;;;;;;14.40;99.90;;;;;;5115387;28;19919;-79
2022/10/22 06:15:05;;;;;;;;;;;14.40;99.90;;;;;;5097871;28;19912;-81
2022/10/22 06:17:31;;;;;;;;;;;14.40;99.90;;;;;;5097219;28;19908;-80
2022/10/22 06:19:56;;;;;;;;;;;14.40;99.90;;;;;;5097042;28;19954;-80
2022/10/22 06:22:22;;;;;;;;;;;14.40;99.90;;;;;;5097449;28;19909;-80
2022/10/22 06:24:48;;;;;;;;;;;14.50;99.90;;;;;;5097451;28;19923;-80
2022/10/22 06:27:13;;;;;;;;;;;14.50;99.90;;;;;;5098735;28;19931;-82
2022/10/22 06:29:39;;;;;;;;;;;14.50;99.90;;;;;;5097702;28;20177;-80
2022/10/22 06:32:04;;;;;;;;;;;14.50;99.90;;;;;;5097786;28;20291;-81
2022/10/22 06:34:30;;;;;;;;;;;14.50;99.90;;;;;;5096077;28;19904;-81
2022/10/22 06:36:55;;;;;;;;;;;14.50;99.90;;;;;;5088951;28;19912;-82
2022/10/22 06:39:21;;;;;;;;;;;14.50;99.90;;;;;;5097197;28;19916;-78
2022/10/22 06:41:47;;;;;;;;;;;14.50;99.90;;;;;;5088101;28;19934;-83
2022/10/22 06:44:14;;;;;;;;;;;14.50;99.90;;;;;;5092751;28;19908;-81
2022/10/22 06:46:39;;;;;;;;;;;14.50;99.90;;;;;;5114613;28;20043;-82
2022/10/22 06:49:05;;;;;;;;;;;14.50;99.90;;;;;;5098439;28;19920;-80
2022/10/22 06:51:30;;;;;;;;;;;14.60;99.90;;;;;;5093784;28;19896;-81
2022/10/22 06:53:56;;;;;;;;;;;14.60;99.90;;;;;;5115598;28;19929;-81
2022/10/22 06:56:23;;;;;;;;;;;14.60;99.90;;;;;;5115385;28;19925;-81
2022/10/22 06:58:49;;;;;;;;;;;14.60;99.90;;;;;;5115624;27;19912;-80
2022/10/22 07:01:16;;;;;;;;;;;14.70;99.90;;;;;;5115860;27;19939;-82
2022/10/22 07:03:42;;;;;;;;;;;14.80;99.90;;;;;;5105832;28;19947;-81
2022/10/22 07:06:09;;;;;;;;;;;14.90;99.90;;;;;;5115803;28;19915;-82
2022/10/22 07:08:35;;;;;;;;;;;15.10;99.90;;;;;;5117647;28;19908;-84
2022/10/22 07:11:05;;;;;;;;;;;15.20;99.90;;;;;;5117164;27;20231;-82
2022/10/22 07:13:30;;;;;;;;;;;15.40;99.90;;;;;;5116476;28;19940;-82
2022/10/22 07:15:56;;;;;;;;;;;15.50;99.90;;;;;;5099007;28;19939;-81
2022/10/22 07:18:21;;;;;;;;;;;15.60;99.90;;;;;;5099480;28;19949;-82
2022/10/22 07:20:47;;;;;;;;;;;15.70;99.90;;;;;;5098914;28;19947;-82
2022/10/22 07:23:13;;;;;;;;;;;15.80;99.90;;;;;;5115992;28;19908;-80
2022/10/22 07:25:39;;;;;;;;;;;15.90;99.90;;;;;;5099507;28;19908;-82
2022/10/22 07:28:05;;;;;;;;;;;16.00;99.90;;;;;;5116520;28;19896;-82
2022/10/22 07:30:30;;;;;;;;;;;16.20;99.90;;;;;;5099911;28;19899;-82
2022/10/22 07:32:56;;;;;;;;;;;16.40;99.90;;;;;;5099792;28;19983;-81
2022/10/22 07:35:21;;;;;;;;;;;16.60;99.90;;;;;;5080601;22;19925;-84
2022/10/22 07:37:46;;;;;;;;;;;16.70;99.90;;;;;;5051902;28;19908;-84
2022/10/22 07:40:12;;;;;;;;;;;16.80;99.90;;;;;;5035528;28;20448;-84
2022/10/22 07:42:37;;;;;;;;;;;16.80;99.90;;;;;;5035397;28;19909;-83
2022/10/22 07:45:03;;;;;;;;;;;16.80;99.90;;;;;;5035458;28;20372;-83
2022/10/22 07:47:28;;;;;;;;;;;16.80;99.90;;;;;;5034950;28;19921;-84
2022/10/22 07:49:54;;;;;;;;;;;16.90;99.90;;;;;;5053250;28;19913;-83
2022/10/22 07:52:19;;;;;;;;;;;16.90;99.90;;;;;;5035122;28;20443;-84
2022/10/22 07:54:45;;;;;;;;;;;17.00;99.90;;;;;;5035226;28;19909;-83
2022/10/22 07:57:10;;;;;;;;;;;17.30;99.90;;;;;;5034745;28;19952;-83
2022/10/22 07:59:36;;;;;;;;;;;17.60;99.90;;;;;;5035140;28;19935;-83
2022/10/22 08:02:01;;;;;;;;;;;18.00;99.90;;;;;;5035077;28;20011;-84
2022/10/22 08:04:27;;;;;;;;;;;18.10;99.90;;;;;;5034863;28;20269;-85
2022/10/22 08:06:52;;;;;;;;;;;18.20;99.90;;;;;;5034096;28;19913;-85
2022/10/22 08:09:17;;;;;;;;;;;18.30;99.90;;;;;;5034733;28;19912;-85
2022/10/22 08:11:44;;;;;;;;;;;18.20;99.90;;;;;;5034856;28;19913;-86
2022/10/22 08:14:09;;;;;;;;;;;18.20;99.90;;;;;;5034640;28;19908;-85
2022/10/22 08:16:35;;;;;;;;;;;18.10;99.90;;;;;;5034594;28;20058;-86
2022/10/22 08:19:01;;;;;;;;;;;18.00;99.90;;;;;;5034823;28;19909;-86
2022/10/22 08:21:26;;;;;;;;;;;18.00;99.90;;;;;;5034669;28;19999;-85
2022/10/22 08:23:52;;;;;;;;;;;17.90;99.90;;;;;;5034370;28;19917;-86
2022/10/22 08:26:17;;;;;;;;;;;17.90;99.90;;;;;;5034265;28;19909;-86
2022/10/22 08:28:42;;;;;;;;;;;17.90;99.90;;;;;;5052403;28;19913;-85
2022/10/22 08:31:09;;;;;;;;;;;17.90;99.90;;;;;;5052480;28;19912;-85
2022/10/22 08:33:35;;;;;;;;;;;17.90;99.90;;;;;;5052307;28;20015;-86
2022/10/22 08:36:00;;;;;;;;;;;17.90;99.90;;;;;;5034322;28;19947;-86
2022/10/22 08:38:26;;;;;;;;;;;17.90;99.90;;;;;;5052354;28;20291;-85
2022/10/22 08:40:55;;;;;;;;;;;17.90;99.90;;;;;;5052492;28;19913;-86
2022/10/22 08:43:21;;;;;;;;;;;17.90;99.90;;;;;;5034402;28;19988;-84
2022/10/22 08:45:56;;;;;;;;;;;18.00;99.90;;;;;;5034057;28;19959;-85
2022/10/22 08:48:35;;;;;;;;;;;18.00;99.90;;;;;;5034083;28;19920;-84
2022/10/22 08:51:00;;;;;;;;;;;18.10;99.90;;;;;;5034334;28;19916;-85
2022/10/22 08:53:48;;;;;;;;;;;18.20;99.90;;;;;;5028032;28;20372;-86
2022/10/22 08:56:14;;;;;;;;;;;18.30;99.90;;;;;;5049402;28;19967;-86
2022/10/22 08:58:59;;;;;;;;;;;18.40;99.90;;;;;;5034272;28;19913;-86
2022/10/22 09:01:30;;;;;;;;;;;18.50;99.90;;;;;;5034232;28;19995;-85
2022/10/22 09:04:03;;;;;;;;;;;18.80;99.90;;;;;;5034434;28;19908;-85
2022/10/22 09:06:31;;;;;;;;;;;19.00;99.90;;;;;;5033924;28;19916;-85
2022/10/22 09:08:57;;;;;;;;;;;19.20;99.90;;;;;;5032869;28;19909;-85
2022/10/22 09:11:29;;;;;;;;;;;19.20;99.90;;;;;;5030997;28;19962;-86
2022/10/22 09:20:27;;;;;;;;;;;19.20;99.90;;;;;;5034289;28;20513;-88
2022/10/22 09:26:08;;;;;;;;;;;18.90;99.90;;;;;;5035188;28;19959;-88
2022/10/22 09:28:36;;;;;;;;;;;18.90;99.90;;;;;;5012933;28;19917;-88
2022/10/22 09:31:24;;;;;;;;;;;;;;;;;;;;;
2022/10/22 09:33:50;;;;;;;;;;;18.80;99.90;;;;;;5041894;28;19923;-85
2022/10/22 09:36:16;;;;;;;;;;;18.80;99.90;;;;;;5036777;28;20426;-85
2022/10/22 09:38:46;;;;;;;;;;;18.80;99.90;;;;;;5036368;28;19916;-86
2022/10/22 09:41:12;;;;;;;;;;;18.80;99.90;;;;;;5035898;28;19932;-86
2022/10/22 09:43:38;;;;;;;;;;;18.80;99.90;;;;;;5037492;28;19909;-86
2022/10/22 09:46:05;;;;;;;;;;;18.70;99.90;;;;;;5036805;28;20007;-85
2022/10/22 09:48:36;;;;;;;;;;;18.60;99.90;;;;;;5045314;28;20298;-85
2022/10/22 09:51:17;;;;;;;;;;;18.60;99.90;;;;;;5040032;28;19952;-85
2022/10/22 09:53:43;;;;;;;;;;;18.60;99.90;;;;;;5035032;28;20356;-86
2022/10/22 09:56:26;;;;;;;;;;;18.60;99.90;;;;;;5034415;28;20273;-86
2022/10/22 09:58:54;;;;;;;;;;;18.60;99.90;;;;;;5017459;28;19913;-87
2022/10/22 10:01:27;;;;;;;;;;;18.50;99.90;;;;;;5017472;28;19971;-85
2022/10/22 10:03:52;;;;;;;;;;;18.40;99.90;;;;;;5017422;28;19951;-85
2022/10/22 10:06:19;;;;;;;;;;;18.30;99.90;;;;;;5016701;28;19940;-85
2022/10/22 10:08:44;;;;;;;;;;;18.20;99.90;;;;;;5016894;28;19913;-85
2022/10/22 10:11:18;;;;;;;;;;;18.20;99.90;;;;;;5016777;28;19909;-85
2022/10/22 10:13:58;;;;;;;;;;;18.30;99.90;;;;;;5017027;28;19970;-86
2022/10/22 10:16:43;;;;;;;;;;;18.30;99.90;;;;;;5016482;28;19913;-86
2022/10/22 10:19:20;;;;;;;;;;;18.20;99.90;;;;;;5035550;28;19912;-86
2022/10/22 10:22:05;;;;;;;;;;;18.20;99.90;;;;;;5036715;28;19920;-85
2022/10/22 10:24:39;;;;;;;;;;;18.10;99.90;;;;;;5053471;28;20288;-84
2022/10/22 10:27:09;;;;;;;;;;;18.10;99.90;;;;;;5054111;28;19913;-85
2022/10/22 10:29:48;;;;;;;;;;;18.10;99.90;;;;;;5035947;28;19912;-84
2022/10/22 10:32:25;;;;;;;;;;;18.10;99.90;;;;;;5036420;28;19919;-85
2022/10/22 10:34:57;;;;;;;;;;;18.10;99.90;;;;;;5036049;28;20262;-85
2022/10/22 10:37:31;;;;;;;;;;;18.10;99.90;;;;;;5053877;28;19909;-84
2022/10/22 10:40:15;;;;;;;;;;;18.20;99.90;;;;;;5036259;28;19913;-84
2022/10/22 10:42:53;;;;;;;;;;;18.20;99.90;;;;;;5054068;28;19909;-84
2022/10/22 10:45:18;;;;;;;;;;;18.30;99.90;;;;;;5036060;28;20307;-85
2022/10/22 10:47:59;;;;;;;;;;;18.20;99.90;;;;;;5035930;28;19924;-85
2022/10/22 10:50:27;;;;;;;;;;;18.20;99.90;;;;;;5036421;28;19909;-84
2022/10/22 10:53:01;;;;;;;;;;;18.20;99.90;;;;;;5035993;28;19916;-85
2022/10/22 10:55:40;;;;;;;;;;;18.20;99.90;;;;;;5035596;28;19948;-85
2022/10/22 10:58:06;;;;;;;;;;;18.30;99.90;;;;;;5053860;28;19908;-83
2022/10/22 11:00:36;;;;;;;;;;;18.30;99.90;;;;;;5036753;28;19913;-84
2022/10/22 11:03:16;;;;;;;;;;;18.40;99.90;;;;;;5035829;28;19909;-85
2022/10/22 11:05:44;;;;;;;;;;;18.30;99.90;;;;;;5053423;28;19915;-84
2022/10/22 11:08:28;;;;;;;;;;;18.40;99.90;;;;;;5053276;28;19920;-85
2022/10/22 11:10:54;;;;;;;;;;;18.40;99.90;;;;;;5035574;28;19913;-84
2022/10/22 11:13:30;;;;;;;;;;;18.50;99.90;;;;;;5053370;28;19987;-84
2022/10/22 11:16:16;;;;;;;;;;;18.50;99.90;;;;;;5035325;28;19909;-85
2022/10/22 11:18:57;;;;;;;;;;;18.60;99.90;;;;;;5021344;28;19920;-84
2022/10/22 11:21:45;;;;;;;;;;;18.70;99.90;;;;;;5035435;28;20054;-84
2022/10/22 11:24:26;;;;;;;;;;;18.70;99.90;;;;;;5035361;28;19909;-84
2022/10/22 11:26:55;;;;;;;;;;;18.70;99.90;;;;;;5035139;28;19909;-84
2022/10/22 11:29:23;;;;;;;;;;;18.70;99.90;;;;;;5035133;28;20257;-83
2022/10/22 11:31:50;;;;;;;;;;;18.70;99.90;;;;;;5035276;28;19909;-84
2022/10/22 11:34:16;;;;;;;;;;;18.70;99.90;;;;;;5035014;28;19909;-84
2022/10/22 11:36:42;;;;;;;;;;;18.60;99.90;;;;;;5052663;28;20303;-84
2022/10/22 11:39:25;;;;;;;;;;;18.50;99.90;;;;;;5034971;28;19987;-83
2022/10/22 11:41:52;;;;;;;;;;;18.50;99.90;;;;;;5034553;28;19915;-84
2022/10/22 11:44:22;;;;;;;;;;;18.60;99.90;;;;;;5034897;28;20026;-85
2022/10/22 11:46:55;;;;;;;;;;;18.60;99.90;;;;;;5034965;28;19909;-85
2022/10/22 11:49:41;;;;;;;;;;;18.40;99.90;;;;;;5035000;28;19963;-85
2022/10/22 11:52:23;;;;;;;;;;;18.40;99.90;;;;;;5034864;28;19959;-84
2022/10/22 11:54:52;;;;;;;;;;;18.40;99.90;;;;;;5052730;28;19916;-85
2022/10/22 11:57:19;;;;;;;;;;;18.50;99.90;;;;;;5034610;28;20268;-83
2022/10/22 11:59:52;;;;;;;;;;;18.60;99.90;;;;;;5034748;28;20300;-84
2022/10/22 12:02:23;;;;;;;;;;;18.70;99.90;;;;;;5034872;28;19997;-85
2022/10/22 12:04:49;;;;;;;;;;;18.80;99.90;;;;;;5034568;28;19909;-85
2022/10/22 12:07:34;;;;;;;;;;;18.80;99.90;;;;;;5034481;28;19913;-85
2022/10/22 12:10:03;;;;;;;;;;;19.10;99.90;;;;;;5034719;28;20062;-84
2022/10/22 12:12:34;;;;;;;;;;;19.30;99.90;;;;;;5034439;28;19916;-84
2022/10/22 12:15:00;;;;;;;;;;;19.50;99.90;;;;;;5034625;28;19940;-85
2022/10/22 12:17:26;;;;;;;;;;;19.80;99.90;;;;;;5034450;28;19915;-84
2022/10/22 12:20:06;;;;;;;;;;;20.20;99.90;;;;;;5034483;28;20012;-85
2022/10/22 12:22:32;;;;;;;;;;;20.60;99.90;;;;;;5034547;28;19908;-85
2022/10/22 12:25:02;;;;;;;;;;;20.90;99.90;;;;;;5034459;28;19909;-85
2022/10/22 12:27:33;;;;;;;;;;;21.00;99.90;;;;;;5034357;28;19960;-85
2022/10/22 12:29:59;;;;;;;;;;;21.00;99.90;;;;;;5034508;28;19909;-84
2022/10/22 12:32:36;;;;;;;;;;;21.10;99.90;;;;;;5034539;28;19909;-85
2022/10/22 12:35:05;;;;;;;;;;;21.10;99.90;;;;;;5034188;28;19963;-84
2022/10/22 12:37:33;;;;;;;;;;;21.10;99.90;;;;;;5034003;28;19908;-84
2022/10/22 12:39:59;;;;;;;;;;;21.10;99.90;;;;;;5052459;28;19956;-84
2022/10/22 12:42:25;;;;;;;;;;;21.20;99.90;;;;;;5051992;28;20383;-84
2022/10/22 12:44:54;;;;;;;;;;;21.60;99.90;;;;;;5034181;28;19999;-84
2022/10/22 12:47:19;;;;;;;;;;;21.90;99.90;;;;;;5033910;28;19913;-84
2022/10/22 12:49:46;;;;;;;;;;;22.00;99.90;;;;;;5034253;28;19909;-85
2022/10/22 12:52:13;;;;;;;;;;;23.00;99.90;;;;;;5034203;28;19909;-85
2022/10/22 12:54:39;;;;;;;;;;;24.00;99.90;;;;;;5055859;28;19909;-83
2022/10/22 12:57:05;;;;;;;;;;;24.20;99.90;;;;;;5056264;28;19909;-83
2022/10/22 12:59:35;;;;;;;;;;;24.30;99.90;;;;;;5056422;28;19955;-82
2022/10/22 13:02:01;;;;;;;;;;;23.90;99.90;;;;;;5056393;28;19916;-83
2022/10/22 13:04:31;;;;;;;;;;;23.50;99.90;;;;;;5038220;28;19917;-83
2022/10/22 13:07:06;;;;;;;;;;;23.10;99.90;;;;;;5055987;28;20379;-84
2022/10/22 13:09:42;;;;;;;;;;;23.20;99.90;;;;;;5033118;28;19909;-85
2022/10/22 13:12:13;;;;;;;;;;;23.00;99.90;;;;;;5035173;28;19909;-85
2022/10/22 13:14:39;;;;;;;;;;;22.80;99.90;;;;;;5035810;28;19912;-86
2022/10/22 13:17:06;;;;;;;;;;;22.40;99.90;;;;;;5029801;28;19975;-84
2022/10/22 13:19:55;;;;;;;;;;;22.20;99.90;;;;;;5033780;28;19975;-86
2022/10/22 13:22:40;;;;;;;;;;;21.70;99.90;;;;;;5035245;28;19909;-85
2022/10/22 13:25:15;;;;;;;;;;;21.20;99.90;;;;;;5037251;28;19908;-85
2022/10/22 13:27:45;;;;;;;;;;;21.10;99.90;;;;;;5037324;28;20360;-84
2022/10/22 13:30:18;;;;;;;;;;;21.00;99.90;;;;;;5037534;28;19966;-85
2022/10/22 13:32:48;;;;;;;;;;;21.00;99.90;;;;;;5037166;28;20287;-86
2022/10/22 13:35:15;;;;;;;;;;;21.10;99.90;;;;;;5065208;23;19993;-82
2022/10/22 13:37:41;;;;;;;;;;;21.10;99.90;;;;;;5089086;28;19913;-84
2022/10/22 13:40:10;;;;;;;;;;;21.10;99.90;;;;;;5095128;28;19956;-83
2022/10/22 13:42:38;;;;;;;;;;;21.10;99.90;;;;;;5095014;28;20386;-83
2022/10/22 13:45:03;;;;;;;;;;;21.20;99.90;;;;;;5092455;28;19908;-83
2022/10/22 13:47:29;;;;;;;;;;;21.10;99.90;;;;;;5094652;28;19950;-83
2022/10/22 13:49:57;;;;;;;;;;;21.50;99.90;;;;;;5095032;28;19954;-83
2022/10/22 13:52:27;;;;;;;;;;;22.40;99.90;;;;;;5070654;28;19960;-83
2022/10/22 13:54:52;;;;;;;;;;;22.90;99.90;;;;;;5074683;28;19908;-82
2022/10/22 13:57:18;;;;;;;;;;;23.60;99.90;;;;;;5074276;28;20428;-82
2022/10/22 13:59:43;;;;;;;;;;;23.80;99.90;;;;;;5074978;28;19916;-82
2022/10/22 14:02:12;;;;;;;;;;;23.50;99.90;;;;;;5056409;28;19908;-82
2022/10/22 14:04:39;;;;;;;;;;;23.30;99.90;;;;;;5074063;28;20368;-81
2022/10/22 14:07:12;;;;;;;;;;;24.30;99.90;;;;;;5074244;28;20294;-81
2022/10/22 14:09:37;;;;;;;;;;;25.60;99.90;;;;;;5074425;28;19909;-83
2022/10/22 14:12:08;;;;;;;;;;;26.80;99.90;;;;;;5094196;28;19914;-83
2022/10/22 14:14:35;;;;;;;;;;;27.00;99.90;;;;;;5094865;28;19908;-84
2022/10/22 14:17:00;;;;;;;;;;;26.20;99.90;;;;;;5093902;28;19912;-82
2022/10/22 14:19:26;;;;;;;;;;;25.30;99.90;;;;;;5094784;28;20008;-82
2022/10/22 14:21:51;;;;;;;;;;;24.50;99.90;;;;;;5094522;28;20007;-82
2022/10/22 14:24:17;;;;;;;;;;;23.90;99.90;;;;;;5094516;28;20307;-82
2022/10/22 14:26:42;;;;;;;;;;;23.50;99.90;;;;;;5093995;28;19908;-82
2022/10/22 14:29:08;;;;;;;;;;;23.20;99.90;;;;;;5094367;28;19915;-82
2022/10/22 14:31:35;;;;;;;;;;;23.00;99.90;;;;;;5094131;28;19915;-82
2022/10/22 14:34:00;;;;;;;;;;;22.70;99.90;;;;;;5094297;28;19912;-82
2022/10/22 14:36:26;;;;;;;;;;;22.50;99.90;;;;;;5094036;28;19922;-82